sensor_id;sensor_type;location;lat;lon;timestamp;temperature;humidity
1055;DHT22;516;51.482;7.120;2022-10-16T00:00:30;13.90;99.90
1055;DHT22;516;51.482;7.120;2022-10-16T00:02:56;13.90;99.90
1055;DHT22;516;51.482;7.120;2022-10-16T00:05:21;13.90;99.90
1055;DHT22;516;51.482;7.120;2022-10-16T00:07:47;13.80;99.90
1055;DHT22;516;51.482;7.120;2022-10-16T00:10:12;13.80;99.90
1055;DHT22;516;51.482;7.120;2022-10-16T00:12:38;13.80;99.90
1055;DHT22;516;51.482;7.120;2022-10-16T00:15:04;13.70;99.90
1055;DHT22;516;51.482;7.120;2022-10-16T00:17:31;13.70;99.90
1055;DHT22;516;51.482;7.120;2022-10-16T00:19:56;13.70;99.90
1055;DHT22;516;51.482;7.120;2022-10-16T00:22:22;13.70;99.90
1055;DHT22;516;51.482;7.120;2022-10-16T00:24:48;13.80;99.90
1055;DHT22;516;51.482;7.120;2022-10-16T00:27:14;13.80;99.90
1055;DHT22;516;51.482;7.120;2022-10-16T00:29:39;13.80;99.90
1055;DHT22;516;51.482;7.120;2022-10-16T00:32:05;13.80;99.90
1055;DHT22;516;51.482;7.120;2022-10-16T00:34:31;13.70;99.90
1055;DHT22;516;51.482;7.120;2022-10-16T00:36:56;13.70;99.90
1055;DHT22;516;51.482;7.120;2022-10-16T00:39:22;13.80;99.90
1055;DHT22;516;51.482;7.120;2022-10-16T00:41:48;13.80;99.90
1055;DHT22;516;51.482;7.120;2022-10-16T00:47:26;13.90;99.90
1055;DHT22;516;51.482;7.120;2022-10-16T00:49:57;14.00;99.90
1055;DHT22;516;51.482;7.120;2022-10-16T00:52:24;13.90;99.90
1055;DHT22;516;51.482;7.120;2022-10-16T00:54:52;14.10;99.90
1055;DHT22;516;51.482;7.120;2022-10-16T00:57:18;13.90;99.90
1055;DHT22;516;51.482;7.120;2022-10-16T00:59:45;13.90;99.90
1055;DHT22;516;51.482;7.120;2022-10-16T01:02:14;13.90;99.90
1055;DHT22;516;51.482;7.120;2022-10-16T01:04:48;13.90;99.90
1055;DHT22;516;51.482;7.120;2022-10-16T01:12:36;13.90;99.90
1055;DHT22;516;51.482;7.120;2022-10-16T01:21:10;13.80;99.90
1055;DHT22;516;51.482;7.120;2022-10-16T01:26:46;13.80;99.90
1055;DHT22;516;51.482;7.120;2022-10-16T01:29:20;13.70;99.90
1055;DHT22;516;51.482;7.120;2022-10-16T01:31:50;13.70;99.90
1055;DHT22;516;51.482;7.120;2022-10-16T01:34:25;13.70;99.90
1055;DHT22;516;51.482;7.120;2022-10-16T01:37:00;13.80;99.90
1055;DHT22;516;51.482;7.120;2022-10-16T01:39:32;13.70;99.90
1055;DHT22;516;51.482;7.120;2022-10-16T01:44:33;13.60;99.90
1055;DHT22;516;51.482;7.120;2022-10-16T01:47:01;13.70;99.90
1055;DHT22;516;51.482;7.120;2022-10-16T01:49:30;13.70;99.90
1055;DHT22;516;51.482;7.120;2022-10-16T01:51:59;13.60;99.90
1055;DHT22;516;51.482;7.120;2022-10-16T01:54:28;13.50;99.90
1055;DHT22;516;51.482;7.120;2022-10-16T01:56:57;13.60;99.90
1055;DHT22;516;51.482;7.120;2022-10-16T01:59:25;13.80;99.90
1055;DHT22;516;51.482;7.120;2022-10-16T02:01:55;13.80;99.90
1055;DHT22;516;51.482;7.120;2022-10-16T02:04:33;13.80;99.90
1055;DHT22;516;51.482;7.120;2022-10-16T02:07:00;13.90;99.90
1055;DHT22;516;51.482;7.120;2022-10-16T02:09:26;14.00;99.90
1055;DHT22;516;51.482;7.120;2022-10-16T02:11:57;14.00;99.90
1055;DHT22;516;51.482;7.120;2022-10-16T02:14:25;13.90;99.90
1055;DHT22;516;51.482;7.120;2022-10-16T02:16:51;13.90;99.90
1055;DHT22;516;51.482;7.120;2022-10-16T02:19:23;13.90;99.90
1055;DHT22;516;51.482;7.120;2022-10-16T02:21:54;13.90;99.90
1055;DHT22;516;51.482;7.120;2022-10-16T02:29:29;13.80;99.90
1055;DHT22;516;51.482;7.120;2022-10-16T02:31:59;13.70;99.90
1055;DHT22;516;51.482;7.120;2022-10-16T02:34:27;13.70;99.90
1055;DHT22;516;51.482;7.120;2022-10-16T02:36:54;13.60;99.90
1055;DHT22;516;51.482;7.120;2022-10-16T02:39:20;13.60;99.90
1055;DHT22;516;51.482;7.120;2022-10-16T02:41:46;13.70;99.90
1055;DHT22;516;51.482;7.120;2022-10-16T02:44:12;13.70;99.90
1055;DHT22;516;51.482;7.120;2022-10-16T02:46:38;13.80;99.90
1055;DHT22;516;51.482;7.120;2022-10-16T02:49:04;13.80;99.90
1055;DHT22;516;51.482;7.120;2022-10-16T02:51:29;13.80;99.90
1055;DHT22;516;51.482;7.120;2022-10-16T02:53:55;13.90;99.90
1055;DHT22;516;51.482;7.120;2022-10-16T02:56:21;13.90;99.90
1055;DHT22;516;51.482;7.120;2022-10-16T02:58:48;14.00;99.90
1055;DHT22;516;51.482;7.120;2022-10-16T03:01:13;14.00;99.90
1055;DHT22;516;51.482;7.120;2022-10-16T03:03:42;14.00;99.90
1055;DHT22;516;51.482;7.120;2022-10-16T03:06:08;14.10;99.90
1055;DHT22;516;51.482;7.120;2022-10-16T03:08:34;14.20;99.90
1055;DHT22;516;51.482;7.120;2022-10-16T03:10:59;14.30;99.90
1055;DHT22;516;51.482;7.120;2022-10-16T03:13:25;14.30;99.90
1055;DHT22;516;51.482;7.120;2022-10-16T03:15:51;14.30;99.90
1055;DHT22;516;51.482;7.120;2022-10-16T03:18:16;14.20;99.90
1055;DHT22;516;51.482;7.120;2022-10-16T03:20:45;14.20;99.90
1055;DHT22;516;51.482;7.120;2022-10-16T03:23:10;14.20;99.90
1055;DHT22;516;51.482;7.120;2022-10-16T03:25:36;14.30;99.90
1055;DHT22;516;51.482;7.120;2022-10-16T03:28:02;14.20;99.90
1055;DHT22;516;51.482;7.120;2022-10-16T03:30:28;14.40;99.90
1055;DHT22;516;51.482;7.120;2022-10-16T03:32:54;14.30;99.90
1055;DHT22;516;51.482;7.120;2022-10-16T03:35:21;14.30;99.90
1055;DHT22;516;51.482;7.120;2022-10-16T03:37:46;14.20;99.90
1055;DHT22;516;51.482;7.120;2022-10-16T03:40:13;14.10;99.90
1055;DHT22;516;51.482;7.120;2022-10-16T03:42:39;14.20;99.90
1055;DHT22;516;51.482;7.120;2022-10-16T03:45:05;14.20;99.90
1055;DHT22;516;51.482;7.120;2022-10-16T03:47:31;14.10;99.90
1055;DHT22;516;51.482;7.120;2022-10-16T03:49:59;14.00;99.90
1055;DHT22;516;51.482;7.120;2022-10-16T03:52:24;14.00;99.90
1055;DHT22;516;51.482;7.120;2022-10-16T03:54:50;14.10;99.90
1055;DHT22;516;51.482;7.120;2022-10-16T03:57:17;14.10;99.90
1055;DHT22;516;51.482;7.120;2022-10-16T03:59:42;14.00;99.90
1055;DHT22;516;51.482;7.120;2022-10-16T04:02:08;14.00;99.90
1055;DHT22;516;51.482;7.120;2022-10-16T04:04:34;14.00;99.90
1055;DHT22;516;51.482;7.120;2022-10-16T04:07:00;14.00;99.90
1055;DHT22;516;51.482;7.120;2022-10-16T04:09:26;13.90;99.90
1055;DHT22;516;51.482;7.120;2022-10-16T04:11:52;13.80;99.90
1055;DHT22;516;51.482;7.120;2022-10-16T04:14:17;13.70;99.90
1055;DHT22;516;51.482;7.120;2022-10-16T04:16:43;13.90;99.90
1055;DHT22;516;51.482;7.120;2022-10-16T04:19:10;13.70;99.90
1055;DHT22;516;51.482;7.120;2022-10-16T04:21:36;13.70;99.90
1055;DHT22;516;51.482;7.120;2022-10-16T04:24:02;13.70;99.90
1055;DHT22;516;51.482;7.120;2022-10-16T04:26:28;13.70;99.90
1055;DHT22;516;51.482;7.120;2022-10-16T04:28:54;13.60;99.90
1055;DHT22;516;51.482;7.120;2022-10-16T04:31:20;13.60;99.90
1055;DHT22;516;51.482;7.120;2022-10-16T04:33:46;13.50;99.90
1055;DHT22;516;51.482;7.120;2022-10-16T04:36:11;13.50;99.90
1055;DHT22;516;51.482;7.120;2022-10-16T04:38:37;13.60;99.90
1055;DHT22;516;51.482;7.120;2022-10-16T04:41:05;13.50;99.90
1055;DHT22;516;51.482;7.120;2022-10-16T04:43:31;13.50;99.90
1055;DHT22;516;51.482;7.120;2022-10-16T04:45:56;13.70;99.90
1055;DHT22;516;51.482;7.120;2022-10-16T04:48:22;13.80;99.90
1055;DHT22;516;51.482;7.120;2022-10-16T04:50:48;13.70;99.90
1055;DHT22;516;51.482;7.120;2022-10-16T04:53:13;13.60;99.90
1055;DHT22;516;51.482;7.120;2022-10-16T04:55:41;13.50;99.90
1055;DHT22;516;51.482;7.120;2022-10-16T04:58:07;13.50;99.90
1055;DHT22;516;51.482;7.120;2022-10-16T05:00:33;13.70;99.90
1055;DHT22;516;51.482;7.120;2022-10-16T05:02:59;13.60;99.90
1055;DHT22;516;51.482;7.120;2022-10-16T05:05:27;13.60;99.90
1055;DHT22;516;51.482;7.120;2022-10-16T05:07:53;13.50;99.90
1055;DHT22;516;51.482;7.120;2022-10-16T05:10:19;13.50;99.90
1055;DHT22;516;51.482;7.120;2022-10-16T05:12:45;13.60;99.90
1055;DHT22;516;51.482;7.120;2022-10-16T05:15:11;13.70;99.90
1055;DHT22;516;51.482;7.120;2022-10-16T05:17:38;13.70;99.90
1055;DHT22;516;51.482;7.120;2022-10-16T05:20:04;13.70;99.90
1055;DHT22;516;51.482;7.120;2022-10-16T05:22:30;13.70;99.90
1055;DHT22;516;51.482;7.120;2022-10-16T05:24:55;13.70;99.90
1055;DHT22;516;51.482;7.120;2022-10-16T05:27:21;13.80;99.90
1055;DHT22;516;51.482;7.120;2022-10-16T05:29:48;13.80;99.90
1055;DHT22;516;51.482;7.120;2022-10-16T05:32:15;13.80;99.90
1055;DHT22;516;51.482;7.120;2022-10-16T05:34:41;13.80;99.90
1055;DHT22;516;51.482;7.120;2022-10-16T05:37:07;13.90;99.90
1055;DHT22;516;51.482;7.120;2022-10-16T05:39:33;13.80;99.90
1055;DHT22;516;51.482;7.120;2022-10-16T05:41:59;13.80;99.90
1055;DHT22;516;51.482;7.120;2022-10-16T05:44:25;13.80;99.90
1055;DHT22;516;51.482;7.120;2022-10-16T05:46:50;13.80;99.90
1055;DHT22;516;51.482;7.120;2022-10-16T05:49:16;13.90;99.90
1055;DHT22;516;51.482;7.120;2022-10-16T05:51:42;13.90;99.90
1055;DHT22;516;51.482;7.120;2022-10-16T05:54:08;13.90;99.90
1055;DHT22;516;51.482;7.120;2022-10-16T05:56:33;13.90;99.90
1055;DHT22;516;51.482;7.120;2022-10-16T05:58:59;13.90;99.90
1055;DHT22;516;51.482;7.120;2022-10-16T06:01:25;13.80;99.90
1055;DHT22;516;51.482;7.120;2022-10-16T06:03:51;13.80;99.90
1055;DHT22;516;51.482;7.120;2022-10-16T06:06:20;13.80;99.90
1055;DHT22;516;51.482;7.120;2022-10-16T06:08:47;13.80;99.90
1055;DHT22;516;51.482;7.120;2022-10-16T06:11:19;13.80;99.90
1055;DHT22;516;51.482;7.120;2022-10-16T06:13:45;13.70;99.90
1055;DHT22;516;51.482;7.120;2022-10-16T06:16:14;13.90;99.90
1055;DHT22;516;51.482;7.120;2022-10-16T06:18:39;13.70;99.90
1055;DHT22;516;51.482;7.120;2022-10-16T06:21:31;13.80;99.90
1055;DHT22;516;51.482;7.120;2022-10-16T06:23:56;13.80;99.90
1055;DHT22;516;51.482;7.120;2022-10-16T06:26:27;13.90;99.90
1055;DHT22;516;51.482;7.120;2022-10-16T06:28:54;13.90;99.90
1055;DHT22;516;51.482;7.120;2022-10-16T06:31:20;14.00;99.90
1055;DHT22;516;51.482;7.120;2022-10-16T06:33:50;14.00;99.90
1055;DHT22;516;51.482;7.120;2022-10-16T06:36:17;14.00;99.90
1055;DHT22;516;51.482;7.120;2022-10-16T06:38:43;14.00;99.90
1055;DHT22;516;51.482;7.120;2022-10-16T06:41:12;14.00;99.90
1055;DHT22;516;51.482;7.120;2022-10-16T06:43:37;14.10;99.90
1055;DHT22;516;51.482;7.120;2022-10-16T06:46:05;14.20;99.90
1055;DHT22;516;51.482;7.120;2022-10-16T06:48:33;14.20;99.90
1055;DHT22;516;51.482;7.120;2022-10-16T06:51:01;14.30;99.90
1055;DHT22;516;51.482;7.120;2022-10-16T06:53:30;14.40;99.90
1055;DHT22;516;51.482;7.120;2022-10-16T06:55:56;14.50;99.90
1055;DHT22;516;51.482;7.120;2022-10-16T06:58:23;14.40;99.90
1055;DHT22;516;51.482;7.120;2022-10-16T07:00:49;14.50;99.90
1055;DHT22;516;51.482;7.120;2022-10-16T07:03:20;14.50;99.90
1055;DHT22;516;51.482;7.120;2022-10-16T07:05:45;14.50;99.90
1055;DHT22;516;51.482;7.120;2022-10-16T07:08:11;14.50;99.90
1055;DHT22;516;51.482;7.120;2022-10-16T07:10:36;14.40;99.90
1055;DHT22;516;51.482;7.120;2022-10-16T07:13:02;14.80;99.90
1055;DHT22;516;51.482;7.120;2022-10-16T07:15:28;15.20;99.90
1055;DHT22;516;51.482;7.120;2022-10-16T07:17:54;15.80;99.90
1055;DHT22;516;51.482;7.120;2022-10-16T07:20:19;16.10;99.90
1055;DHT22;516;51.482;7.120;2022-10-16T07:22:46;15.50;99.90
1055;DHT22;516;51.482;7.120;2022-10-16T07:25:12;14.80;99.90
1055;DHT22;516;51.482;7.120;2022-10-16T07:27:38;14.70;99.90
1055;DHT22;516;51.482;7.120;2022-10-16T07:30:04;14.60;99.90
1055;DHT22;516;51.482;7.120;2022-10-16T07:32:30;14.50;99.90
1055;DHT22;516;51.482;7.120;2022-10-16T07:34:56;14.50;99.90
1055;DHT22;516;51.482;7.120;2022-10-16T07:37:22;14.70;99.90
1055;DHT22;516;51.482;7.120;2022-10-16T07:39:48;14.70;99.90
1055;DHT22;516;51.482;7.120;2022-10-16T07:42:13;15.50;99.90
1055;DHT22;516;51.482;7.120;2022-10-16T07:44:39;16.20;99.90
1055;DHT22;516;51.482;7.120;2022-10-16T07:47:06;17.30;99.90
1055;DHT22;516;51.482;7.120;2022-10-16T07:49:32;17.80;99.90
1055;DHT22;516;51.482;7.120;2022-10-16T07:51:57;18.00;99.90
1055;DHT22;516;51.482;7.120;2022-10-16T07:54:23;18.10;99.90
1055;DHT22;516;51.482;7.120;2022-10-16T07:56:49;18.30;99.90
1055;DHT22;516;51.482;7.120;2022-10-16T07:59:20;18.60;99.90
1055;DHT22;516;51.482;7.120;2022-10-16T08:01:49;18.70;99.90
1055;DHT22;516;51.482;7.120;2022-10-16T08:04:16;18.80;99.90
1055;DHT22;516;51.482;7.120;2022-10-16T08:06:42;18.80;99.90
1055;DHT22;516;51.482;7.120;2022-10-16T08:09:08;18.80;99.90
1055;DHT22;516;51.482;7.120;2022-10-16T08:11:34;18.40;99.90
1055;DHT22;516;51.482;7.120;2022-10-16T08:14:00;18.40;99.90
1055;DHT22;516;51.482;7.120;2022-10-16T08:16:26;18.90;99.90
1055;DHT22;516;51.482;7.120;2022-10-16T08:18:52;19.70;99.90
1055;DHT22;516;51.482;7.120;2022-10-16T08:21:20;19.30;99.90
1055;DHT22;516;51.482;7.120;2022-10-16T08:23:46;19.20;99.90
1055;DHT22;516;51.482;7.120;2022-10-16T08:26:12;19.00;99.90
1055;DHT22;516;51.482;7.120;2022-10-16T08:28:39;19.90;99.90
1055;DHT22;516;51.482;7.120;2022-10-16T08:31:14;19.40;99.90
1055;DHT22;516;51.482;7.120;2022-10-16T08:33:42;19.00;99.90
1055;DHT22;516;51.482;7.120;2022-10-16T08:36:10;19.30;99.90
1055;DHT22;516;51.482;7.120;2022-10-16T08:38:36;18.90;99.90
1055;DHT22;516;51.482;7.120;2022-10-16T08:47:22;20.20;92.20
1055;DHT22;516;51.482;7.120;2022-10-16T08:50:18;20.60;80.20
1055;DHT22;516;51.482;7.120;2022-10-16T08:52:46;20.40;75.10
1055;DHT22;516;51.482;7.120;2022-10-16T08:57:52;20.60;76.80
1055;DHT22;516;51.482;7.120;2022-10-16T09:00:18;20.20;81.30
1055;DHT22;516;51.482;7.120;2022-10-16T09:05:45;19.20;92.10
1055;DHT22;516;51.482;7.120;2022-10-16T09:08:37;19.50;78.20
1055;DHT22;516;51.482;7.120;2022-10-16T09:11:30;19.20;89.20
1055;DHT22;516;51.482;7.120;2022-10-16T09:14:29;18.80;95.30
1055;DHT22;516;51.482;7.120;2022-10-16T09:20:32;19.20;96.70
1055;DHT22;516;51.482;7.120;2022-10-16T09:22:37;19.80;92.30
1055;DHT22;516;51.482;7.120;2022-10-16T09:25:13;19.60;89.50
1055;DHT22;516;51.482;7.120;2022-10-16T09:27:39;20.10;82.90
1055;DHT22;516;51.482;7.120;2022-10-16T09:30:17;20.20;80.40
1055;DHT22;516;51.482;7.120;2022-10-16T09:32:45;19.60;87.90
1055;DHT22;516;51.482;7.120;2022-10-16T09:35:21;19.80;89.00
1055;DHT22;516;51.482;7.120;2022-10-16T09:37:51;20.00;78.10
1055;DHT22;516;51.482;7.120;2022-10-16T09:40:35;19.90;81.30
1055;DHT22;516;51.482;7.120;2022-10-16T09:46:03;20.30;73.70
1055;DHT22;516;51.482;7.120;2022-10-16T09:48:37;20.30;76.80
1055;DHT22;516;51.482;7.120;2022-10-16T09:51:13;20.10;74.60
1055;DHT22;516;51.482;7.120;2022-10-16T09:53:44;20.50;67.50
1055;DHT22;516;51.482;7.120;2022-10-16T09:56:11;20.80;67.10
1055;DHT22;516;51.482;7.120;2022-10-16T09:58:42;20.80;64.60
1055;DHT22;516;51.482;7.120;2022-10-16T10:01:14;21.20;62.20
1055;DHT22;516;51.482;7.120;2022-10-16T10:03:42;21.10;60.70
1055;DHT22;516;51.482;7.120;2022-10-16T10:06:28;20.70;66.20
1055;DHT22;516;51.482;7.120;2022-10-16T10:11:39;20.20;68.40
1055;DHT22;516;51.482;7.120;2022-10-16T10:14:36;20.80;62.60
1055;DHT22;516;51.482;7.120;2022-10-16T10:36:25;20.40;66.70
1055;DHT22;516;51.482;7.120;2022-10-16T10:38:57;20.30;69.60
1055;DHT22;516;51.482;7.120;2022-10-16T10:49:46;20.40;68.80
1055;DHT22;516;51.482;7.120;2022-10-16T10:52:42;20.30;75.20
1055;DHT22;516;51.482;7.120;2022-10-16T11:01:11;19.80;66.90
1055;DHT22;516;51.482;7.120;2022-10-16T11:06:46;19.30;78.40
1055;DHT22;516;51.482;7.120;2022-10-16T11:09:21;19.00;90.00
1055;DHT22;516;51.482;7.120;2022-10-16T11:15:13;21.20;57.20
1055;DHT22;516;51.482;7.120;2022-10-16T11:17:48;20.90;58.10
1055;DHT22;516;51.482;7.120;2022-10-16T11:20:21;21.60;51.20
1055;DHT22;516;51.482;7.120;2022-10-16T11:22:55;21.40;53.60
1055;DHT22;516;51.482;7.120;2022-10-16T11:28:19;20.40;58.80
1055;DHT22;516;51.482;7.120;2022-10-16T11:34:12;20.50;53.40
1055;DHT22;516;51.482;7.120;2022-10-16T11:39:27;19.60;60.10
1055;DHT22;516;51.482;7.120;2022-10-16T11:53:23;21.50;46.20
1055;DHT22;516;51.482;7.120;2022-10-16T11:56:07;22.00;40.80
1055;DHT22;516;51.482;7.120;2022-10-16T12:06:44;22.90;36.40
1055;DHT22;516;51.482;7.120;2022-10-16T12:09:38;23.40;35.10
1055;DHT22;516;51.482;7.120;2022-10-16T12:12:22;23.50;30.50
1055;DHT22;516;51.482;7.120;2022-10-16T12:14:59;22.90;35.70
1055;DHT22;516;51.482;7.120;2022-10-16T12:17:36;23.00;35.60
1055;DHT22;516;51.482;7.120;2022-10-16T12:22:41;21.10;36.70
1055;DHT22;516;51.482;7.120;2022-10-16T12:25:39;21.00;39.90
1055;DHT22;516;51.482;7.120;2022-10-16T12:30:41;21.10;38.30
1055;DHT22;516;51.482;7.120;2022-10-16T12:33:30;21.10;38.10
1055;DHT22;516;51.482;7.120;2022-10-16T12:35:58;20.80;41.50
1055;DHT22;516;51.482;7.120;2022-10-16T12:38:31;20.50;41.50
1055;DHT22;516;51.482;7.120;2022-10-16T12:41:08;20.60;46.80
1055;DHT22;516;51.482;7.120;2022-10-16T12:43:42;20.30;48.70
1055;DHT22;516;51.482;7.120;2022-10-16T12:48:35;21.30;46.70
1055;DHT22;516;51.482;7.120;2022-10-16T12:53:37;21.60;41.10
1055;DHT22;516;51.482;7.120;2022-10-16T12:56:04;21.70;41.50
1055;DHT22;516;51.482;7.120;2022-10-16T12:58:57;21.00;44.70
1055;DHT22;516;51.482;7.120;2022-10-16T13:01:39;21.70;42.10
1055;DHT22;516;51.482;7.120;2022-10-16T13:18:13;24.50;28.60
1055;DHT22;516;51.482;7.120;2022-10-16T13:23:33;22.00;36.30
1055;DHT22;516;51.482;7.120;2022-10-16T13:28:39;23.20;33.00
1055;DHT22;516;51.482;7.120;2022-10-16T13:31:05;22.60;34.60
1055;DHT22;516;51.482;7.120;2022-10-16T13:33:41;24.20;30.40
1055;DHT22;516;51.482;7.120;2022-10-16T13:36:26;22.00;35.60
1055;DHT22;516;51.482;7.120;2022-10-16T13:41:58;21.10;40.00
1055;DHT22;516;51.482;7.120;2022-10-16T13:44:26;21.40;37.20
1055;DHT22;516;51.482;7.120;2022-10-16T13:47:02;21.00;41.60
1055;DHT22;516;51.482;7.120;2022-10-16T13:49:28;21.20;40.80
1055;DHT22;516;51.482;7.120;2022-10-16T13:51:55;20.80;44.60
1055;DHT22;516;51.482;7.120;2022-10-16T13:54:22;21.00;44.10
1055;DHT22;516;51.482;7.120;2022-10-16T13:56:48;20.70;40.10
1055;DHT22;516;51.482;7.120;2022-10-16T13:59:32;20.20;42.60
1055;DHT22;516;51.482;7.120;2022-10-16T14:01:59;20.50;44.40
1055;DHT22;516;51.482;7.120;2022-10-16T14:04:29;20.20;44.00
1055;DHT22;516;51.482;7.120;2022-10-16T14:06:57;20.10;48.50
1055;DHT22;516;51.482;7.120;2022-10-16T14:09:28;20.30;45.90
1055;DHT22;516;51.482;7.120;2022-10-16T14:12:17;20.30;43.60
1055;DHT22;516;51.482;7.120;2022-10-16T14:14:53;20.40;41.30
1055;DHT22;516;51.482;7.120;2022-10-16T14:17:22;20.50;44.00
1055;DHT22;516;51.482;7.120;2022-10-16T14:19:51;21.10;39.10
1055;DHT22;516;51.482;7.120;2022-10-16T14:22:42;22.00;35.00
1055;DHT22;516;51.482;7.120;2022-10-16T14:28:18;20.10;41.80
1055;DHT22;516;51.482;7.120;2022-10-16T14:30:55;19.80;45.60
1055;DHT22;516;51.482;7.120;2022-10-16T14:38:38;18.90;59.00
1055;DHT22;516;51.482;7.120;2022-10-16T14:41:05;19.00;62.90
1055;DHT22;516;51.482;7.120;2022-10-16T14:43:34;19.00;61.30
1055;DHT22;516;51.482;7.120;2022-10-16T14:46:11;19.20;59.00
1055;DHT22;516;51.482;7.120;2022-10-16T14:48:41;19.50;59.30
1055;DHT22;516;51.482;7.120;2022-10-16T14:51:14;19.50;63.00
1055;DHT22;516;51.482;7.120;2022-10-16T14:53:40;19.30;67.80
1055;DHT22;516;51.482;7.120;2022-10-16T14:56:18;19.50;60.50
1055;DHT22;516;51.482;7.120;2022-10-16T14:58:45;20.20;57.20
1055;DHT22;516;51.482;7.120;2022-10-16T15:01:11;19.80;62.00
1055;DHT22;516;51.482;7.120;2022-10-16T15:03:40;19.70;60.60
1055;DHT22;516;51.482;7.120;2022-10-16T15:06:11;19.50;65.50
1055;DHT22;516;51.482;7.120;2022-10-16T15:08:37;19.30;68.40
1055;DHT22;516;51.482;7.120;2022-10-16T15:11:04;19.10;70.30
1055;DHT22;516;51.482;7.120;2022-10-16T15:13:29;18.90;80.00
1055;DHT22;516;51.482;7.120;2022-10-16T15:15:55;18.90;85.20
1055;DHT22;516;51.482;7.120;2022-10-16T15:18:21;18.80;80.90
1055;DHT22;516;51.482;7.120;2022-10-16T15:20:49;18.80;90.70
1055;DHT22;516;51.482;7.120;2022-10-16T15:23:20;18.80;85.90
1055;DHT22;516;51.482;7.120;2022-10-16T15:25:54;18.80;90.00
1055;DHT22;516;51.482;7.120;2022-10-16T15:28:22;18.60;99.90
1055;DHT22;516;51.482;7.120;2022-10-16T15:30:50;18.40;99.90
1055;DHT22;516;51.482;7.120;2022-10-16T15:33:19;18.30;99.90
1055;DHT22;516;51.482;7.120;2022-10-16T15:35:50;18.30;99.90
1055;DHT22;516;51.482;7.120;2022-10-16T15:38:17;18.10;99.90
1055;DHT22;516;51.482;7.120;2022-10-16T15:40:44;18.00;99.90
1055;DHT22;516;51.482;7.120;2022-10-16T15:43:09;17.80;99.90
1055;DHT22;516;51.482;7.120;2022-10-16T15:45:35;17.80;99.90
1055;DHT22;516;51.482;7.120;2022-10-16T15:48:01;17.80;99.90
1055;DHT22;516;51.482;7.120;2022-10-16T15:50:28;17.70;99.90
1055;DHT22;516;51.482;7.120;2022-10-16T15:52:55;17.60;99.90
1055;DHT22;516;51.482;7.120;2022-10-16T15:55:21;17.50;99.90
1055;DHT22;516;51.482;7.120;2022-10-16T15:57:47;17.60;99.90
1055;DHT22;516;51.482;7.120;2022-10-16T16:00:16;17.70;99.90
1055;DHT22;516;51.482;7.120;2022-10-16T16:02:44;17.60;99.90
1055;DHT22;516;51.482;7.120;2022-10-16T16:05:14;17.60;99.90
1055;DHT22;516;51.482;7.120;2022-10-16T16:07:43;17.40;99.90
1055;DHT22;516;51.482;7.120;2022-10-16T16:10:11;17.30;99.90
1055;DHT22;516;51.482;7.120;2022-10-16T16:12:38;17.40;99.90
1055;DHT22;516;51.482;7.120;2022-10-16T16:15:08;17.30;99.90
1055;DHT22;516;51.482;7.120;2022-10-16T16:17:35;17.20;99.90
1055;DHT22;516;51.482;7.120;2022-10-16T16:20:02;17.10;99.90
1055;DHT22;516;51.482;7.120;2022-10-16T16:22:29;17.10;99.90
1055;DHT22;516;51.482;7.120;2022-10-16T16:24:55;17.00;99.90
1055;DHT22;516;51.482;7.120;2022-10-16T16:27:21;17.00;99.90
1055;DHT22;516;51.482;7.120;2022-10-16T16:29:47;17.00;99.90
1055;DHT22;516;51.482;7.120;2022-10-16T16:32:13;17.00;99.90
1055;DHT22;516;51.482;7.120;2022-10-16T16:34:38;16.80;99.90
1055;DHT22;516;51.482;7.120;2022-10-16T16:37:04;16.80;99.90
1055;DHT22;516;51.482;7.120;2022-10-16T16:39:30;16.70;99.90
1055;DHT22;516;51.482;7.120;2022-10-16T16:41:56;16.70;99.90
1055;DHT22;516;51.482;7.120;2022-10-16T16:44:24;16.60;99.90
1055;DHT22;516;51.482;7.120;2022-10-16T16:46:50;16.50;99.90
1055;DHT22;516;51.482;7.120;2022-10-16T16:49:17;16.40;99.90
1055;DHT22;516;51.482;7.120;2022-10-16T16:51:43;16.30;99.90
1055;DHT22;516;51.482;7.120;2022-10-16T16:54:10;16.30;99.90
1055;DHT22;516;51.482;7.120;2022-10-16T16:56:37;16.20;99.90
1055;DHT22;516;51.482;7.120;2022-10-16T16:59:03;16.20;99.90
1055;DHT22;516;51.482;7.120;2022-10-16T17:01:29;16.20;99.90
1055;DHT22;516;51.482;7.120;2022-10-16T17:03:57;16.00;99.90
1055;DHT22;516;51.482;7.120;2022-10-16T17:06:27;16.00;99.90
1055;DHT22;516;51.482;7.120;2022-10-16T17:08:55;16.00;99.90
1055;DHT22;516;51.482;7.120;2022-10-16T17:11:22;15.90;99.90
1055;DHT22;516;51.482;7.120;2022-10-16T17:13:51;15.90;99.90
1055;DHT22;516;51.482;7.120;2022-10-16T17:16:17;15.90;99.90
1055;DHT22;516;51.482;7.120;2022-10-16T17:18:43;15.80;99.90
1055;DHT22;516;51.482;7.120;2022-10-16T17:21:10;15.80;99.90
1055;DHT22;516;51.482;7.120;2022-10-16T17:23:36;15.80;99.90
1055;DHT22;516;51.482;7.120;2022-10-16T17:26:10;15.70;99.90
1055;DHT22;516;51.482;7.120;2022-10-16T17:28:39;15.70;99.90
1055;DHT22;516;51.482;7.120;2022-10-16T17:31:10;15.70;99.90
1055;DHT22;516;51.482;7.120;2022-10-16T17:33:35;15.70;99.90
1055;DHT22;516;51.482;7.120;2022-10-16T17:36:01;15.70;99.90
1055;DHT22;516;51.482;7.120;2022-10-16T17:38:27;15.80;99.90
1055;DHT22;516;51.482;7.120;2022-10-16T17:40:52;15.70;99.90
1055;DHT22;516;51.482;7.120;2022-10-16T17:43:18;15.70;99.90
1055;DHT22;516;51.482;7.120;2022-10-16T17:45:44;15.80;99.90
1055;DHT22;516;51.482;7.120;2022-10-16T17:48:09;15.80;99.90
1055;DHT22;516;51.482;7.120;2022-10-16T17:50:39;15.70;99.90
1055;DHT22;516;51.482;7.120;2022-10-16T17:53:05;15.70;99.90
1055;DHT22;516;51.482;7.120;2022-10-16T17:55:31;15.70;99.90
1055;DHT22;516;51.482;7.120;2022-10-16T17:58:01;15.70;99.90
1055;DHT22;516;51.482;7.120;2022-10-16T18:00:28;15.90;99.90
1055;DHT22;516;51.482;7.120;2022-10-16T18:02:53;15.90;99.90
1055;DHT22;516;51.482;7.120;2022-10-16T18:05:19;15.90;99.90
1055;DHT22;516;51.482;7.120;2022-10-16T18:07:45;16.00;99.90
1055;DHT22;516;51.482;7.120;2022-10-16T18:10:10;16.00;99.90
1055;DHT22;516;51.482;7.120;2022-10-16T18:12:37;16.00;99.90
1055;DHT22;516;51.482;7.120;2022-10-16T18:15:03;16.00;99.90
1055;DHT22;516;51.482;7.120;2022-10-16T18:17:29;16.10;99.90
1055;DHT22;516;51.482;7.120;2022-10-16T18:19:56;16.10;99.90
1055;DHT22;516;51.482;7.120;2022-10-16T18:22:21;16.10;99.90
1055;DHT22;516;51.482;7.120;2022-10-16T18:24:48;16.10;99.90
1055;DHT22;516;51.482;7.120;2022-10-16T18:27:13;16.30;99.90
1055;DHT22;516;51.482;7.120;2022-10-16T18:29:39;16.20;99.90
1055;DHT22;516;51.482;7.120;2022-10-16T18:32:05;16.20;99.90
1055;DHT22;516;51.482;7.120;2022-10-16T18:34:30;16.30;99.90
1055;DHT22;516;51.482;7.120;2022-10-16T18:37:00;16.40;99.90
1055;DHT22;516;51.482;7.120;2022-10-16T18:39:25;16.50;99.90
1055;DHT22;516;51.482;7.120;2022-10-16T18:41:51;16.50;99.90
1055;DHT22;516;51.482;7.120;2022-10-16T18:44:24;16.60;99.90
1055;DHT22;516;51.482;7.120;2022-10-16T18:46:50;16.70;99.90
1055;DHT22;516;51.482;7.120;2022-10-16T18:49:16;16.70;99.90
1055;DHT22;516;51.482;7.120;2022-10-16T18:51:42;16.70;99.90
1055;DHT22;516;51.482;7.120;2022-10-16T18:54:11;16.60;99.90
1055;DHT22;516;51.482;7.120;2022-10-16T18:56:37;16.60;99.90
1055;DHT22;516;51.482;7.120;2022-10-16T18:59:05;16.60;99.90
1055;DHT22;516;51.482;7.120;2022-10-16T19:01:33;16.60;99.90